Impacts METAR Board
IDs:

KPDX - Portland Intl Arpt, OR, US

Updated at: 1000 UTC 24 Jan 2019
Potential Impact None Slight Moderate High
Time 23/22Z 23/23Z 24/00Z 24/01Z 24/02Z 24/03Z 24/04Z 24/05Z 24/06Z 24/07Z 24/08Z 24/09Z 24/10Z
Temp55 55 54 53 52 52 50 49 50 46 48 47 47
Dewpt45 46 44 45 45 44 44 44 43 42 43 43 44
Altim30.37 30.38 30.40 30.41 30.43 30.45 30.45 30.45 30.47 30.48 30.51 30.52 30.53
VIS10 10 10 10 10 10 10 10 10 10 10 10 10
CIG33 34 27 31 31 34 39 35 50 46 19 21 26
CoverOVCBKNBKNBKNOVCOVCBKNBKNBKNBKNOVCOVCOVC
FltCatVFRVFRMVFRVFRVFRVFRVFRVFRVFRVFRMVFRMVFRMVFR
WX-----------------------RA-RA
WDir24021023023000021000000
WSpd11 5 7 3 0 0 0 5 0 0 0 0 0
WGst-- -- -- -- -- -- -- -- -- -- -- -- --
Raw hourly METARs
KPDX 232153Z 24011KT 10SM FEW025 OVC033 13/07 A3037 RMK AO2 SLP284 T01280072
KPDX 232253Z 21005KT 10SM SCT022 BKN034 13/08 A3038 RMK AO2 RAB2156E05 SLP287 P0000 T01280078
KPDX 232353Z 23007KT 10SM BKN027 BKN034 BKN045 12/07 A3040 RMK AO2 SLP294 60000 T01220067 10139 20117 53015
KPDX 240053Z 23003KT 10SM FEW022 BKN031 BKN040 12/07 A3041 RMK AO2 SLP298 T01170072
KPDX 240153Z 00000KT 10SM OVC031 11/07 A3043 RMK AO2 SLP302 T01110072
KPDX 240253Z 00000KT 10SM BKN034 OVC047 11/07 A3045 RMK AO2 SLP310 T01110067 53012
KPDX 240353Z 00000KT 10SM BKN039 10/07 A3045 RMK AO2 SLP309 T01000067
KPDX 240453Z 21005KT 10SM FEW023 BKN035 09/07 A3045 RMK AO2 SLP311 T00940067
KPDX 240553Z 00000KT 10SM FEW022 SCT035 BKN050 10/06 A3047 RMK AO2 SLP316 T01000061 10122 20094 53006
KPDX 240653Z 00000KT 10SM FEW022 BKN046 08/06 A3048 RMK AO2 SLP321 T00780056
KPDX 240753Z 00000KT 10SM BKN019 BKN026 OVC038 09/06 A3051 RMK AO2 SLP329 T00890061 401390067
KPDX 240853Z 00000KT 10SM -RA BKN021 OVC038 08/06 A3052 RMK AO2 RAB49 SLP334 P0000 60000 T00830061 51013
KPDX 240953Z 00000KT 10SM -RA OVC026 08/07 A3053 RMK AO2 SLP336 P0000 T00830067



Page loaded:  10:54 UTC  |   02:54 AM Pacific  |   03:54 AM Mountain  |   04:54 AM Central  |   05:54 AM Eastern

 

ADVISORIES

FORECASTS

FORECASTS

OBSERVATIONS

USER TOOLS

ABOUT US